sensor_id;sensor_type;location;lat;lon;timestamp;temperature;humidity
80931;DHT22;70388;42.698;23.324;2023-10-31T08:16:08;23.90;38.10
80931;DHT22;70388;42.698;23.324;2023-10-31T08:18:34;24.10;36.90
80931;DHT22;70388;42.698;23.324;2023-10-31T08:21:00;24.80;35.30
80931;DHT22;70388;42.698;23.324;2023-10-31T08:23:28;25.70;34.00
80931;DHT22;70388;42.698;23.324;2023-10-31T08:25:54;26.10;31.80
80931;DHT22;70388;42.698;23.324;2023-10-31T08:28:19;25.90;33.00
80931;DHT22;70388;42.698;23.324;2023-10-31T08:30:45;26.90;31.40
80931;DHT22;70388;42.698;23.324;2023-10-31T08:33:12;27.70;30.00
80931;DHT22;70388;42.698;23.324;2023-10-31T08:35:38;27.50;29.80
80931;DHT22;70388;42.698;23.324;2023-10-31T08:38:03;27.30;29.90
80931;DHT22;70388;42.698;23.324;2023-10-31T08:40:29;27.00;30.60
80931;DHT22;70388;42.698;23.324;2023-10-31T08:42:55;27.50;30.20
80931;DHT22;70388;42.698;23.324;2023-10-31T08:45:21;28.20;29.30
80931;DHT22;70388;42.698;23.324;2023-10-31T08:47:47;28.80;28.80
80931;DHT22;70388;42.698;23.324;2023-10-31T08:50:13;29.10;28.10
80931;DHT22;70388;42.698;23.324;2023-10-31T08:52:39;29.30;27.90
80931;DHT22;70388;42.698;23.324;2023-10-31T08:55:05;29.20;28.00
80931;DHT22;70388;42.698;23.324;2023-10-31T08:57:31;28.20;28.80
80931;DHT22;70388;42.698;23.324;2023-10-31T08:59:59;28.40;28.90
80931;DHT22;70388;42.698;23.324;2023-10-31T09:02:25;28.70;28.30
80931;DHT22;70388;42.698;23.324;2023-10-31T09:04:50;29.10;28.00
80931;DHT22;70388;42.698;23.324;2023-10-31T09:07:16;29.60;27.40
80931;DHT22;70388;42.698;23.324;2023-10-31T09:09:42;28.50;27.80
80931;DHT22;70388;42.698;23.324;2023-10-31T09:12:08;28.40;28.40
80931;DHT22;70388;42.698;23.324;2023-10-31T09:14:34;29.30;27.40
80931;DHT22;70388;42.698;23.324;2023-10-31T09:17:01;27.60;28.80
80931;DHT22;70388;42.698;23.324;2023-10-31T09:19:26;27.80;29.10
80931;DHT22;70388;42.698;23.324;2023-10-31T09:21:52;28.20;28.30
80931;DHT22;70388;42.698;23.324;2023-10-31T09:24:18;28.60;28.00
80931;DHT22;70388;42.698;23.324;2023-10-31T09:26:43;28.90;27.70
80931;DHT22;70388;42.698;23.324;2023-10-31T09:29:11;29.10;27.60
80931;DHT22;70388;42.698;23.324;2023-10-31T09:31:36;29.00;27.40
80931;DHT22;70388;42.698;23.324;2023-10-31T09:34:02;29.00;27.30
80931;DHT22;70388;42.698;23.324;2023-10-31T09:36:32;29.20;27.20
80931;DHT22;70388;42.698;23.324;2023-10-31T09:38:57;29.20;27.30
80931;DHT22;70388;42.698;23.324;2023-10-31T09:41:23;28.60;27.60
80931;DHT22;70388;42.698;23.324;2023-10-31T09:43:49;27.60;28.60
80931;DHT22;70388;42.698;23.324;2023-10-31T09:46:16;25.90;30.80
80931;DHT22;70388;42.698;23.324;2023-10-31T09:48:43;25.10;32.30
80931;DHT22;70388;42.698;23.324;2023-10-31T09:51:09;24.40;33.50
80931;DHT22;70388;42.698;23.324;2023-10-31T09:53:38;23.70;35.10
80931;DHT22;70388;42.698;23.324;2023-10-31T09:56:07;23.20;36.00
80931;DHT22;70388;42.698;23.324;2023-10-31T09:58:33;22.90;36.90
80931;DHT22;70388;42.698;23.324;2023-10-31T10:01:00;22.70;37.40
80931;DHT22;70388;42.698;23.324;2023-10-31T10:03:27;22.20;38.30
80931;DHT22;70388;42.698;23.324;2023-10-31T10:05:53;22.00;39.00
80931;DHT22;70388;42.698;23.324;2023-10-31T10:08:19;21.80;39.50
80931;DHT22;70388;42.698;23.324;2023-10-31T10:10:45;21.70;39.70
80931;DHT22;70388;42.698;23.324;2023-10-31T10:13:11;21.70;39.90
80931;DHT22;70388;42.698;23.324;2023-10-31T10:15:51;21.60;40.20
80931;DHT22;70388;42.698;23.324;2023-10-31T10:18:31;21.50;40.30
80931;DHT22;70388;42.698;23.324;2023-10-31T10:20:58;21.50;40.60
80931;DHT22;70388;42.698;23.324;2023-10-31T10:23:25;21.30;40.50
80931;DHT22;70388;42.698;23.324;2023-10-31T10:25:51;21.50;40.30
80931;DHT22;70388;42.698;23.324;2023-10-31T10:28:18;21.00;41.50
80931;DHT22;70388;42.698;23.324;2023-10-31T10:30:47;20.60;42.30
80931;DHT22;70388;42.698;23.324;2023-10-31T10:33:14;20.70;42.40
80931;DHT22;70388;42.698;23.324;2023-10-31T10:35:40;21.00;41.50
80931;DHT22;70388;42.698;23.324;2023-10-31T10:38:14;21.30;40.70
80931;DHT22;70388;42.698;23.324;2023-10-31T10:40:41;21.30;40.40
80931;DHT22;70388;42.698;23.324;2023-10-31T10:43:25;21.60;39.60
80931;DHT22;70388;42.698;23.324;2023-10-31T10:45:55;21.80;39.00
80931;DHT22;70388;42.698;23.324;2023-10-31T10:48:22;22.00;38.60
80931;DHT22;70388;42.698;23.324;2023-10-31T10:50:52;22.20;38.30
80931;DHT22;70388;42.698;23.324;2023-10-31T10:53:25;22.10;37.70
80931;DHT22;70388;42.698;23.324;2023-10-31T10:56:09;22.20;37.10
80931;DHT22;70388;42.698;23.324;2023-10-31T10:58:58;22.40;36.70
80931;DHT22;70388;42.698;23.324;2023-10-31T11:01:26;22.50;36.00
80931;DHT22;70388;42.698;23.324;2023-10-31T11:03:55;22.10;35.90
80931;DHT22;70388;42.698;23.324;2023-10-31T11:06:21;21.40;37.00
80931;DHT22;70388;42.698;23.324;2023-10-31T11:08:47;21.30;37.80
80931;DHT22;70388;42.698;23.324;2023-10-31T11:11:13;21.40;37.40
80931;DHT22;70388;42.698;23.324;2023-10-31T11:13:43;21.60;36.80
80931;DHT22;70388;42.698;23.324;2023-10-31T11:16:17;21.80;36.40
80931;DHT22;70388;42.698;23.324;2023-10-31T11:18:46;21.60;36.00
80931;DHT22;70388;42.698;23.324;2023-10-31T11:21:11;21.50;36.40
80931;DHT22;70388;42.698;23.324;2023-10-31T11:23:37;21.40;36.40
80931;DHT22;70388;42.698;23.324;2023-10-31T11:26:07;21.60;36.20
80931;DHT22;70388;42.698;23.324;2023-10-31T11:28:34;21.90;35.90
80931;DHT22;70388;42.698;23.324;2023-10-31T11:31:01;22.00;35.60
80931;DHT22;70388;42.698;23.324;2023-10-31T11:33:28;22.10;35.50
80931;DHT22;70388;42.698;23.324;2023-10-31T11:36:03;22.10;35.50
80931;DHT22;70388;42.698;23.324;2023-10-31T11:38:35;22.20;35.30
80931;DHT22;70388;42.698;23.324;2023-10-31T11:41:02;22.10;35.20
80931;DHT22;70388;42.698;23.324;2023-10-31T11:49:04;22.40;34.10
80931;DHT22;70388;42.698;23.324;2023-10-31T11:51:31;22.60;33.20
80931;DHT22;70388;42.698;23.324;2023-10-31T11:53:57;22.80;33.10
80931;DHT22;70388;42.698;23.324;2023-10-31T11:56:24;22.80;33.20
80931;DHT22;70388;42.698;23.324;2023-10-31T11:59:04;22.60;33.10
80931;DHT22;70388;42.698;23.324;2023-10-31T12:01:32;22.30;34.20
80931;DHT22;70388;42.698;23.324;2023-10-31T12:03:57;22.50;33.90
80931;DHT22;70388;42.698;23.324;2023-10-31T12:06:23;22.60;33.90
80931;DHT22;70388;42.698;23.324;2023-10-31T12:08:49;22.70;33.70
80931;DHT22;70388;42.698;23.324;2023-10-31T12:11:19;22.70;33.60
80931;DHT22;70388;42.698;23.324;2023-10-31T12:16:28;22.90;33.60
80931;DHT22;70388;42.698;23.324;2023-10-31T12:19:05;22.80;33.60
80931;DHT22;70388;42.698;23.324;2023-10-31T12:21:41;22.90;33.60
80931;DHT22;70388;42.698;23.324;2023-10-31T12:24:10;22.90;33.60
80931;DHT22;70388;42.698;23.324;2023-10-31T12:26:36;23.00;33.30
80931;DHT22;70388;42.698;23.324;2023-10-31T12:29:12;23.20;32.90
80931;DHT22;70388;42.698;23.324;2023-10-31T12:31:40;23.20;32.60
80931;DHT22;70388;42.698;23.324;2023-10-31T12:34:07;23.30;32.60
80931;DHT22;70388;42.698;23.324;2023-10-31T12:36:35;23.30;32.60
80931;DHT22;70388;42.698;23.324;2023-10-31T12:39:01;23.30;32.90
80931;DHT22;70388;42.698;23.324;2023-10-31T12:41:28;23.30;32.80
80931;DHT22;70388;42.698;23.324;2023-10-31T12:43:55;23.20;33.20
80931;DHT22;70388;42.698;23.324;2023-10-31T12:49:37;22.90;34.10
80931;DHT22;70388;42.698;23.324;2023-10-31T12:52:04;22.70;34.40
80931;DHT22;70388;42.698;23.324;2023-10-31T12:54:34;22.10;35.90
80931;DHT22;70388;42.698;23.324;2023-10-31T12:57:05;21.90;36.60
80931;DHT22;70388;42.698;23.324;2023-10-31T12:59:32;21.90;36.80
80931;DHT22;70388;42.698;23.324;2023-10-31T13:01:58;21.90;36.90
80931;DHT22;70388;42.698;23.324;2023-10-31T13:04:29;21.90;37.00
80931;DHT22;70388;42.698;23.324;2023-10-31T13:06:59;21.90;37.10
80931;DHT22;70388;42.698;23.324;2023-10-31T13:09:29;22.00;37.50
80931;DHT22;70388;42.698;23.324;2023-10-31T13:12:00;22.00;37.40
80931;DHT22;70388;42.698;23.324;2023-10-31T13:14:27;22.00;37.40
80931;DHT22;70388;42.698;23.324;2023-10-31T13:17:14;21.90;37.60
80931;DHT22;70388;42.698;23.324;2023-10-31T13:19:40;21.90;37.80
80931;DHT22;70388;42.698;23.324;2023-10-31T13:22:06;21.90;37.70
80931;DHT22;70388;42.698;23.324;2023-10-31T13:24:32;21.90;37.60
80931;DHT22;70388;42.698;23.324;2023-10-31T13:26:58;22.00;37.40
80931;DHT22;70388;42.698;23.324;2023-10-31T13:29:25;22.00;37.40
80931;DHT22;70388;42.698;23.324;2023-10-31T13:31:52;22.00;37.50
80931;DHT22;70388;42.698;23.324;2023-10-31T13:34:18;22.10;37.40
80931;DHT22;70388;42.698;23.324;2023-10-31T13:36:44;22.20;37.20
80931;DHT22;70388;42.698;23.324;2023-10-31T13:39:31;22.30;37.20
80931;DHT22;70388;42.698;23.324;2023-10-31T13:41:57;22.40;37.30
80931;DHT22;70388;42.698;23.324;2023-10-31T13:44:22;22.30;37.20
80931;DHT22;70388;42.698;23.324;2023-10-31T13:46:48;22.40;37.10
80931;DHT22;70388;42.698;23.324;2023-10-31T13:49:14;22.40;36.70
80931;DHT22;70388;42.698;23.324;2023-10-31T13:51:39;22.40;37.50
80931;DHT22;70388;42.698;23.324;2023-10-31T13:54:05;22.30;37.20
80931;DHT22;70388;42.698;23.324;2023-10-31T13:56:31;21.90;37.80
80931;DHT22;70388;42.698;23.324;2023-10-31T13:58:58;21.60;38.60
80931;DHT22;70388;42.698;23.324;2023-10-31T14:01:24;21.50;38.60
80931;DHT22;70388;42.698;23.324;2023-10-31T14:03:51;21.50;38.50
80931;DHT22;70388;42.698;23.324;2023-10-31T14:06:16;21.60;38.50
80931;DHT22;70388;42.698;23.324;2023-10-31T14:08:43;21.60;38.30
80931;DHT22;70388;42.698;23.324;2023-10-31T14:11:39;21.70;38.30
80931;DHT22;70388;42.698;23.324;2023-10-31T14:14:11;21.70;38.30
80931;DHT22;70388;42.698;23.324;2023-10-31T14:16:44;21.80;38.30
80931;DHT22;70388;42.698;23.324;2023-10-31T14:19:10;21.70;38.30
80931;DHT22;70388;42.698;23.324;2023-10-31T14:21:36;21.60;39.00
80931;DHT22;70388;42.698;23.324;2023-10-31T14:24:02;21.50;39.00
80931;DHT22;70388;42.698;23.324;2023-10-31T14:26:29;21.40;39.30
80931;DHT22;70388;42.698;23.324;2023-10-31T14:28:55;21.40;39.10
80931;DHT22;70388;42.698;23.324;2023-10-31T14:31:21;21.40;39.20
80931;DHT22;70388;42.698;23.324;2023-10-31T14:33:47;21.30;39.30
80931;DHT22;70388;42.698;23.324;2023-10-31T14:36:13;21.30;39.40
80931;DHT22;70388;42.698;23.324;2023-10-31T14:38:39;21.30;39.50
80931;DHT22;70388;42.698;23.324;2023-10-31T14:41:06;21.20;39.80
80931;DHT22;70388;42.698;23.324;2023-10-31T14:43:32;21.10;40.10
80931;DHT22;70388;42.698;23.324;2023-10-31T14:45:58;21.00;40.10
80931;DHT22;70388;42.698;23.324;2023-10-31T14:48:33;20.90;40.30
80931;DHT22;70388;42.698;23.324;2023-10-31T14:50:59;20.90;40.50
80931;DHT22;70388;42.698;23.324;2023-10-31T14:53:24;20.90;40.50
80931;DHT22;70388;42.698;23.324;2023-10-31T14:55:50;20.90;40.70
80931;DHT22;70388;42.698;23.324;2023-10-31T14:58:16;20.90;40.60
80931;DHT22;70388;42.698;23.324;2023-10-31T15:00:41;20.90;40.80
80931;DHT22;70388;42.698;23.324;2023-10-31T15:03:07;20.80;41.00
80931;DHT22;70388;42.698;23.324;2023-10-31T15:05:33;20.80;41.10
80931;DHT22;70388;42.698;23.324;2023-10-31T15:07:59;20.70;41.40
80931;DHT22;70388;42.698;23.324;2023-10-31T15:10:34;20.70;41.60
80931;DHT22;70388;42.698;23.324;2023-10-31T15:13:00;20.60;41.70
80931;DHT22;70388;42.698;23.324;2023-10-31T15:15:26;20.50;41.80
80931;DHT22;70388;42.698;23.324;2023-10-31T15:17:52;20.50;41.80
80931;DHT22;70388;42.698;23.324;2023-10-31T15:20:18;20.50;41.70
80931;DHT22;70388;42.698;23.324;2023-10-31T15:22:44;20.30;43.80
80931;DHT22;70388;42.698;23.324;2023-10-31T15:25:10;20.10;44.10
80931;DHT22;70388;42.698;23.324;2023-10-31T15:27:36;20.00;44.30
80931;DHT22;70388;42.698;23.324;2023-10-31T15:30:03;20.10;44.10
80931;DHT22;70388;42.698;23.324;2023-10-31T15:32:28;20.20;43.70
80931;DHT22;70388;42.698;23.324;2023-10-31T15:34:54;20.20;43.30
80931;DHT22;70388;42.698;23.324;2023-10-31T15:37:20;20.20;43.30
80931;DHT22;70388;42.698;23.324;2023-10-31T15:39:46;20.30;43.40
80931;DHT22;70388;42.698;23.324;2023-10-31T15:42:14;20.40;43.60
80931;DHT22;70388;42.698;23.324;2023-10-31T15:44:40;20.30;43.90
80931;DHT22;70388;42.698;23.324;2023-10-31T15:47:06;20.30;43.10
80931;DHT22;70388;42.698;23.324;2023-10-31T15:49:32;20.40;43.00
80931;DHT22;70388;42.698;23.324;2023-10-31T15:51:58;20.30;43.20
80931;DHT22;70388;42.698;23.324;2023-10-31T15:54:24;20.40;43.20
80931;DHT22;70388;42.698;23.324;2023-10-31T15:56:50;20.30;43.40
80931;DHT22;70388;42.698;23.324;2023-10-31T15:59:15;20.20;44.40
80931;DHT22;70388;42.698;23.324;2023-10-31T16:01:41;20.20;43.60
80931;DHT22;70388;42.698;23.324;2023-10-31T16:04:08;20.30;43.20
80931;DHT22;70388;42.698;23.324;2023-10-31T16:06:34;20.30;43.40
80931;DHT22;70388;42.698;23.324;2023-10-31T16:09:00;20.20;43.60
80931;DHT22;70388;42.698;23.324;2023-10-31T16:11:26;20.20;43.60
80931;DHT22;70388;42.698;23.324;2023-10-31T16:13:51;20.20;43.30
80931;DHT22;70388;42.698;23.324;2023-10-31T16:16:17;20.20;43.30
80931;DHT22;70388;42.698;23.324;2023-10-31T16:18:43;20.00;43.50
80931;DHT22;70388;42.698;23.324;2023-10-31T16:21:16;20.00;43.50
80931;DHT22;70388;42.698;23.324;2023-10-31T16:23:42;20.10;43.50
80931;DHT22;70388;42.698;23.324;2023-10-31T16:26:07;20.10;43.40
80931;DHT22;70388;42.698;23.324;2023-10-31T16:28:33;20.00;43.60
80931;DHT22;70388;42.698;23.324;2023-10-31T16:30:59;19.90;43.80
80931;DHT22;70388;42.698;23.324;2023-10-31T16:33:26;19.80;44.00
80931;DHT22;70388;42.698;23.324;2023-10-31T16:35:52;19.80;44.10
80931;DHT22;70388;42.698;23.324;2023-10-31T16:38:18;19.80;44.20
80931;DHT22;70388;42.698;23.324;2023-10-31T16:40:43;19.80;44.20
80931;DHT22;70388;42.698;23.324;2023-10-31T16:43:09;19.70;44.40
80931;DHT22;70388;42.698;23.324;2023-10-31T16:45:35;19.70;44.60
80931;DHT22;70388;42.698;23.324;2023-10-31T16:48:00;19.60;44.70
80931;DHT22;70388;42.698;23.324;2023-10-31T16:50:27;19.60;45.10
80931;DHT22;70388;42.698;23.324;2023-10-31T16:52:56;19.50;45.10
80931;DHT22;70388;42.698;23.324;2023-10-31T16:55:22;19.40;45.30
80931;DHT22;70388;42.698;23.324;2023-10-31T16:57:48;19.40;45.40
80931;DHT22;70388;42.698;23.324;2023-10-31T17:00:14;19.40;45.50
80931;DHT22;70388;42.698;23.324;2023-10-31T17:02:39;19.40;45.30
80931;DHT22;70388;42.698;23.324;2023-10-31T17:05:05;19.30;45.50
80931;DHT22;70388;42.698;23.324;2023-10-31T17:07:31;19.30;45.30
80931;DHT22;70388;42.698;23.324;2023-10-31T17:09:57;19.30;45.50
80931;DHT22;70388;42.698;23.324;2023-10-31T17:12:23;19.20;45.60
80931;DHT22;70388;42.698;23.324;2023-10-31T17:14:49;19.20;45.70
80931;DHT22;70388;42.698;23.324;2023-10-31T17:17:15;19.10;45.70
80931;DHT22;70388;42.698;23.324;2023-10-31T17:19:41;19.10;45.80
80931;DHT22;70388;42.698;23.324;2023-10-31T17:22:07;19.10;45.90
80931;DHT22;70388;42.698;23.324;2023-10-31T17:24:33;19.00;45.80
80931;DHT22;70388;42.698;23.324;2023-10-31T17:26:58;18.90;45.90
80931;DHT22;70388;42.698;23.324;2023-10-31T17:29:24;18.90;45.90
80931;DHT22;70388;42.698;23.324;2023-10-31T17:31:50;18.90;45.80
80931;DHT22;70388;42.698;23.324;2023-10-31T17:34:15;18.90;45.90
80931;DHT22;70388;42.698;23.324;2023-10-31T17:36:41;18.80;46.30
80931;DHT22;70388;42.698;23.324;2023-10-31T17:39:07;18.90;46.20
80931;DHT22;70388;42.698;23.324;2023-10-31T17:41:34;18.90;46.00
80931;DHT22;70388;42.698;23.324;2023-10-31T17:44:00;19.00;45.90
80931;DHT22;70388;42.698;23.324;2023-10-31T17:46:26;19.10;45.80
80931;DHT22;70388;42.698;23.324;2023-10-31T17:48:51;19.00;45.60
80931;DHT22;70388;42.698;23.324;2023-10-31T17:51:17;18.80;45.90
80931;DHT22;70388;42.698;23.324;2023-10-31T17:53:43;18.70;46.20
80931;DHT22;70388;42.698;23.324;2023-10-31T17:56:13;18.60;46.70
80931;DHT22;70388;42.698;23.324;2023-10-31T17:58:39;18.60;46.70
80931;DHT22;70388;42.698;23.324;2023-10-31T18:01:05;18.70;46.70
80931;DHT22;70388;42.698;23.324;2023-10-31T18:03:31;18.70;46.60
80931;DHT22;70388;42.698;23.324;2023-10-31T18:05:57;18.70;46.40
80931;DHT22;70388;42.698;23.324;2023-10-31T18:08:23;18.80;46.10
80931;DHT22;70388;42.698;23.324;2023-10-31T18:10:49;18.70;46.50
80931;DHT22;70388;42.698;23.324;2023-10-31T18:13:15;18.60;46.70
80931;DHT22;70388;42.698;23.324;2023-10-31T18:15:40;18.80;46.20
80931;DHT22;70388;42.698;23.324;2023-10-31T18:18:06;18.90;46.00
80931;DHT22;70388;42.698;23.324;2023-10-31T18:20:33;18.60;46.60
80931;DHT22;70388;42.698;23.324;2023-10-31T18:22:59;18.40;46.80
80931;DHT22;70388;42.698;23.324;2023-10-31T18:25:25;18.50;46.90
80931;DHT22;70388;42.698;23.324;2023-10-31T18:27:50;18.50;47.00
80931;DHT22;70388;42.698;23.324;2023-10-31T18:30:16;18.70;46.60
80931;DHT22;70388;42.698;23.324;2023-10-31T18:32:44;18.70;46.40
80931;DHT22;70388;42.698;23.324;2023-10-31T18:35:10;18.70;46.40
80931;DHT22;70388;42.698;23.324;2023-10-31T18:37:35;18.90;46.40
80931;DHT22;70388;42.698;23.324;2023-10-31T18:40:01;18.70;46.90
80931;DHT22;70388;42.698;23.324;2023-10-31T18:42:28;18.50;47.50
80931;DHT22;70388;42.698;23.324;2023-10-31T18:44:54;18.40;47.70
80931;DHT22;70388;42.698;23.324;2023-10-31T18:47:19;18.50;47.90
80931;DHT22;70388;42.698;23.324;2023-10-31T18:49:47;18.50;47.80
80931;DHT22;70388;42.698;23.324;2023-10-31T18:52:14;18.40;48.00
80931;DHT22;70388;42.698;23.324;2023-10-31T18:54:40;18.30;48.30
80931;DHT22;70388;42.698;23.324;2023-10-31T18:57:06;18.20;48.40
80931;DHT22;70388;42.698;23.324;2023-10-31T18:59:31;18.30;48.30
80931;DHT22;70388;42.698;23.324;2023-10-31T19:01:57;18.20;48.20
80931;DHT22;70388;42.698;23.324;2023-10-31T19:04:27;18.30;47.90
80931;DHT22;70388;42.698;23.324;2023-10-31T19:06:53;18.30;47.90
80931;DHT22;70388;42.698;23.324;2023-10-31T19:09:19;18.40;47.50
80931;DHT22;70388;42.698;23.324;2023-10-31T19:11:46;18.40;47.50
80931;DHT22;70388;42.698;23.324;2023-10-31T19:14:12;18.30;47.70
80931;DHT22;70388;42.698;23.324;2023-10-31T19:16:37;18.30;47.80
80931;DHT22;70388;42.698;23.324;2023-10-31T19:19:03;18.30;47.50
80931;DHT22;70388;42.698;23.324;2023-10-31T19:21:29;18.40;47.70
80931;DHT22;70388;42.698;23.324;2023-10-31T19:23:54;18.30;47.80
80931;DHT22;70388;42.698;23.324;2023-10-31T19:26:20;18.30;47.80
80931;DHT22;70388;42.698;23.324;2023-10-31T19:28:46;18.40;47.50
80931;DHT22;70388;42.698;23.324;2023-10-31T19:31:11;18.40;47.40
80931;DHT22;70388;42.698;23.324;2023-10-31T19:33:37;18.10;47.90
80931;DHT22;70388;42.698;23.324;2023-10-31T19:36:03;17.80;48.90
80931;DHT22;70388;42.698;23.324;2023-10-31T19:38:29;17.80;48.60
80931;DHT22;70388;42.698;23.324;2023-10-31T19:40:55;18.00;48.00
80931;DHT22;70388;42.698;23.324;2023-10-31T19:43:20;18.20;47.60
80931;DHT22;70388;42.698;23.324;2023-10-31T19:45:46;18.10;47.80
80931;DHT22;70388;42.698;23.324;2023-10-31T19:48:12;17.80;48.60
80931;DHT22;70388;42.698;23.324;2023-10-31T19:50:38;17.80;48.50
80931;DHT22;70388;42.698;23.324;2023-10-31T19:53:04;17.90;48.00
80931;DHT22;70388;42.698;23.324;2023-10-31T19:55:29;17.90;48.10
80931;DHT22;70388;42.698;23.324;2023-10-31T19:57:56;17.90;48.00
80931;DHT22;70388;42.698;23.324;2023-10-31T20:00:21;17.80;48.60
80931;DHT22;70388;42.698;23.324;2023-10-31T20:02:50;17.50;49.10
80931;DHT22;70388;42.698;23.324;2023-10-31T20:05:16;17.60;49.10
80931;DHT22;70388;42.698;23.324;2023-10-31T20:07:42;17.70;48.80
80931;DHT22;70388;42.698;23.324;2023-10-31T20:10:08;17.80;48.50
80931;DHT22;70388;42.698;23.324;2023-10-31T20:12:33;18.10;48.00
80931;DHT22;70388;42.698;23.324;2023-10-31T20:14:59;18.20;47.80
80931;DHT22;70388;42.698;23.324;2023-10-31T20:17:25;18.10;47.80
80931;DHT22;70388;42.698;23.324;2023-10-31T20:19:52;18.10;47.60
80931;DHT22;70388;42.698;23.324;2023-10-31T20:22:18;18.10;47.60
80931;DHT22;70388;42.698;23.324;2023-10-31T20:24:44;18.10;47.50
80931;DHT22;70388;42.698;23.324;2023-10-31T20:27:11;18.00;47.80
80931;DHT22;70388;42.698;23.324;2023-10-31T20:29:37;17.60;48.30
80931;DHT22;70388;42.698;23.324;2023-10-31T20:32:05;17.50;48.60
80931;DHT22;70388;42.698;23.324;2023-10-31T20:34:31;17.70;48.00
80931;DHT22;70388;42.698;23.324;2023-10-31T20:36:56;17.90;47.60
80931;DHT22;70388;42.698;23.324;2023-10-31T20:39:22;17.90;47.70
80931;DHT22;70388;42.698;23.324;2023-10-31T20:41:48;17.80;47.90
80931;DHT22;70388;42.698;23.324;2023-10-31T20:44:14;17.70;47.90
80931;DHT22;70388;42.698;23.324;2023-10-31T20:46:39;17.50;48.30
80931;DHT22;70388;42.698;23.324;2023-10-31T20:49:06;17.40;48.70
80931;DHT22;70388;42.698;23.324;2023-10-31T20:51:32;17.40;48.80
80931;DHT22;70388;42.698;23.324;2023-10-31T20:53:58;17.40;48.50
80931;DHT22;70388;42.698;23.324;2023-10-31T20:56:24;17.30;49.80
80931;DHT22;70388;42.698;23.324;2023-10-31T20:58:50;17.60;48.40
80931;DHT22;70388;42.698;23.324;2023-10-31T21:01:16;17.60;47.90
80931;DHT22;70388;42.698;23.324;2023-10-31T21:03:41;17.40;48.40
80931;DHT22;70388;42.698;23.324;2023-10-31T21:06:07;17.30;48.70
80931;DHT22;70388;42.698;23.324;2023-10-31T21:08:33;17.40;48.40
80931;DHT22;70388;42.698;23.324;2023-10-31T21:10:59;17.60;47.90
80931;DHT22;70388;42.698;23.324;2023-10-31T21:13:25;17.80;47.40
80931;DHT22;70388;42.698;23.324;2023-10-31T21:15:52;17.70;47.40
80931;DHT22;70388;42.698;23.324;2023-10-31T21:18:17;17.50;47.70
80931;DHT22;70388;42.698;23.324;2023-10-31T21:20:43;17.40;48.30
80931;DHT22;70388;42.698;23.324;2023-10-31T21:23:09;17.40;48.30
80931;DHT22;70388;42.698;23.324;2023-10-31T21:25:35;17.40;48.50
80931;DHT22;70388;42.698;23.324;2023-10-31T21:28:01;17.40;48.40
80931;DHT22;70388;42.698;23.324;2023-10-31T21:30:28;17.60;48.10
80931;DHT22;70388;42.698;23.324;2023-10-31T21:32:53;17.30;48.60
80931;DHT22;70388;42.698;23.324;2023-10-31T21:35:19;17.00;50.00
80931;DHT22;70388;42.698;23.324;2023-10-31T21:37:44;16.90;51.60
80931;DHT22;70388;42.698;23.324;2023-10-31T21:40:10;16.80;50.50
80931;DHT22;70388;42.698;23.324;2023-10-31T21:42:36;16.80;50.90
80931;DHT22;70388;42.698;23.324;2023-10-31T21:45:04;16.70;51.10
80931;DHT22;70388;42.698;23.324;2023-10-31T21:47:30;16.70;51.00
80931;DHT22;70388;42.698;23.324;2023-10-31T21:49:56;16.70;51.30
80931;DHT22;70388;42.698;23.324;2023-10-31T21:52:21;16.70;51.30
80931;DHT22;70388;42.698;23.324;2023-10-31T21:54:47;16.50;52.20
80931;DHT22;70388;42.698;23.324;2023-10-31T21:57:12;16.50;52.60
80931;DHT22;70388;42.698;23.324;2023-10-31T21:59:38;16.50;52.20
80931;DHT22;70388;42.698;23.324;2023-10-31T22:02:04;16.60;52.20
80931;DHT22;70388;42.698;23.324;2023-10-31T22:04:29;16.70;51.80
80931;DHT22;70388;42.698;23.324;2023-10-31T22:06:56;16.90;51.40
80931;DHT22;70388;42.698;23.324;2023-10-31T22:09:23;17.00;50.90
80931;DHT22;70388;42.698;23.324;2023-10-31T22:11:49;17.20;50.50
80931;DHT22;70388;42.698;23.324;2023-10-31T22:14:14;17.20;50.10
80931;DHT22;70388;42.698;23.324;2023-10-31T22:16:40;17.40;50.20
80931;DHT22;70388;42.698;23.324;2023-10-31T22:19:06;17.40;49.90
80931;DHT22;70388;42.698;23.324;2023-10-31T22:21:33;17.30;50.20
80931;DHT22;70388;42.698;23.324;2023-10-31T22:23:59;17.40;50.00
80931;DHT22;70388;42.698;23.324;2023-10-31T22:26:25;17.40;49.80
80931;DHT22;70388;42.698;23.324;2023-10-31T22:28:51;17.40;49.70
80931;DHT22;70388;42.698;23.324;2023-10-31T22:31:17;17.40;50.10
80931;DHT22;70388;42.698;23.324;2023-10-31T22:33:43;17.50;49.60
80931;DHT22;70388;42.698;23.324;2023-10-31T22:36:10;17.40;49.90
80931;DHT22;70388;42.698;23.324;2023-10-31T22:38:35;17.40;50.10
80931;DHT22;70388;42.698;23.324;2023-10-31T22:41:01;17.40;50.20
80931;DHT22;70388;42.698;23.324;2023-10-31T22:43:27;17.50;49.80
80931;DHT22;70388;42.698;23.324;2023-10-31T22:45:53;17.50;49.60
80931;DHT22;70388;42.698;23.324;2023-10-31T22:48:19;17.60;49.30
80931;DHT22;70388;42.698;23.324;2023-10-31T22:50:46;17.70;49.30
80931;DHT22;70388;42.698;23.324;2023-10-31T22:53:12;17.80;49.00
80931;DHT22;70388;42.698;23.324;2023-10-31T22:55:38;17.80;49.00
80931;DHT22;70388;42.698;23.324;2023-10-31T22:58:03;17.70;49.30
80931;DHT22;70388;42.698;23.324;2023-10-31T23:00:29;17.70;49.10
80931;DHT22;70388;42.698;23.324;2023-10-31T23:02:59;17.70;49.40
80931;DHT22;70388;42.698;23.324;2023-10-31T23:05:26;17.60;50.80
80931;DHT22;70388;42.698;23.324;2023-10-31T23:07:53;17.50;50.30
80931;DHT22;70388;42.698;23.324;2023-10-31T23:10:19;17.30;50.90
80931;DHT22;70388;42.698;23.324;2023-10-31T23:12:46;17.20;51.00
80931;DHT22;70388;42.698;23.324;2023-10-31T23:15:12;17.30;51.10
80931;DHT22;70388;42.698;23.324;2023-10-31T23:17:39;17.40;50.90
80931;DHT22;70388;42.698;23.324;2023-10-31T23:20:09;17.50;50.80
80931;DHT22;70388;42.698;23.324;2023-10-31T23:22:36;17.40;50.80
80931;DHT22;70388;42.698;23.324;2023-10-31T23:25:02;17.20;51.60
80931;DHT22;70388;42.698;23.324;2023-10-31T23:27:30;17.30;51.80
80931;DHT22;70388;42.698;23.324;2023-10-31T23:29:57;17.40;51.70
80931;DHT22;70388;42.698;23.324;2023-10-31T23:32:23;17.60;51.90
80931;DHT22;70388;42.698;23.324;2023-10-31T23:34:49;17.70;51.90
80931;DHT22;70388;42.698;23.324;2023-10-31T23:37:14;17.70;52.90
80931;DHT22;70388;42.698;23.324;2023-10-31T23:39:40;17.80;54.50